sensor_id;sensor_type;location;lat;lon;timestamp;temperature;humidity
11647;DHT22;5880;52.342;9.662;2023-03-23T00:01:56;15.90;52.60
11647;DHT22;5880;52.342;9.662;2023-03-23T00:04:21;15.90;52.90
11647;DHT22;5880;52.342;9.662;2023-03-23T00:06:48;15.80;53.00
11647;DHT22;5880;52.342;9.662;2023-03-23T00:09:14;15.80;53.20
11647;DHT22;5880;52.342;9.662;2023-03-23T00:11:41;15.70;53.40
11647;DHT22;5880;52.342;9.662;2023-03-23T00:14:09;15.70;53.80
11647;DHT22;5880;52.342;9.662;2023-03-23T00:16:39;15.60;54.00
11647;DHT22;5880;52.342;9.662;2023-03-23T00:19:10;15.50;54.50
11647;DHT22;5880;52.342;9.662;2023-03-23T00:21:41;15.50;54.90
11647;DHT22;5880;52.342;9.662;2023-03-23T00:24:09;15.40;54.70
11647;DHT22;5880;52.342;9.662;2023-03-23T00:26:38;15.40;54.80
11647;DHT22;5880;52.342;9.662;2023-03-23T00:31:41;15.40;56.20
11647;DHT22;5880;52.342;9.662;2023-03-23T00:34:12;15.30;55.50
11647;DHT22;5880;52.342;9.662;2023-03-23T00:36:43;15.30;55.80
11647;DHT22;5880;52.342;9.662;2023-03-23T00:39:10;15.30;55.90
11647;DHT22;5880;52.342;9.662;2023-03-23T00:41:35;15.20;55.90
11647;DHT22;5880;52.342;9.662;2023-03-23T00:44:02;15.20;56.20
11647;DHT22;5880;52.342;9.662;2023-03-23T00:46:27;15.20;56.40
11647;DHT22;5880;52.342;9.662;2023-03-23T00:48:55;15.20;56.50
11647;DHT22;5880;52.342;9.662;2023-03-23T00:51:22;15.20;56.80
11647;DHT22;5880;52.342;9.662;2023-03-23T00:53:49;15.20;56.80
11647;DHT22;5880;52.342;9.662;2023-03-23T00:56:15;15.10;56.80
11647;DHT22;5880;52.342;9.662;2023-03-23T00:58:41;15.10;56.90
11647;DHT22;5880;52.342;9.662;2023-03-23T01:01:07;15.10;57.10
11647;DHT22;5880;52.342;9.662;2023-03-23T01:03:34;15.10;57.30
11647;DHT22;5880;52.342;9.662;2023-03-23T01:06:09;15.10;57.40
11647;DHT22;5880;52.342;9.662;2023-03-23T01:08:41;15.10;58.10
11647;DHT22;5880;52.342;9.662;2023-03-23T01:11:15;15.00;57.60
11647;DHT22;5880;52.342;9.662;2023-03-23T01:13:42;15.00;57.80
11647;DHT22;5880;52.342;9.662;2023-03-23T01:16:09;15.00;57.80
11647;DHT22;5880;52.342;9.662;2023-03-23T01:18:36;15.00;58.20
11647;DHT22;5880;52.342;9.662;2023-03-23T01:21:10;15.00;58.80
11647;DHT22;5880;52.342;9.662;2023-03-23T01:23:39;15.00;59.00
11647;DHT22;5880;52.342;9.662;2023-03-23T01:26:07;15.00;58.20
11647;DHT22;5880;52.342;9.662;2023-03-23T01:28:35;14.90;58.80
11647;DHT22;5880;52.342;9.662;2023-03-23T01:31:03;15.00;58.60
11647;DHT22;5880;52.342;9.662;2023-03-23T01:33:31;14.90;59.10
11647;DHT22;5880;52.342;9.662;2023-03-23T01:36:04;14.90;58.90
11647;DHT22;5880;52.342;9.662;2023-03-23T01:38:35;14.90;58.90
11647;DHT22;5880;52.342;9.662;2023-03-23T01:41:02;14.90;59.10
11647;DHT22;5880;52.342;9.662;2023-03-23T01:43:28;14.90;59.20
11647;DHT22;5880;52.342;9.662;2023-03-23T01:45:54;14.90;59.20
11647;DHT22;5880;52.342;9.662;2023-03-23T01:48:32;14.90;59.30
11647;DHT22;5880;52.342;9.662;2023-03-23T01:51:13;14.80;60.10
11647;DHT22;5880;52.342;9.662;2023-03-23T01:54:02;14.90;60.30
11647;DHT22;5880;52.342;9.662;2023-03-23T01:56:38;14.90;60.40
11647;DHT22;5880;52.342;9.662;2023-03-23T01:59:10;14.90;59.90
11647;DHT22;5880;52.342;9.662;2023-03-23T02:01:37;14.80;59.40
11647;DHT22;5880;52.342;9.662;2023-03-23T02:04:05;14.80;59.40
11647;DHT22;5880;52.342;9.662;2023-03-23T02:06:32;14.80;59.50
11647;DHT22;5880;52.342;9.662;2023-03-23T02:08:59;14.80;59.50
11647;DHT22;5880;52.342;9.662;2023-03-23T02:11:25;14.80;59.60
11647;DHT22;5880;52.342;9.662;2023-03-23T02:13:51;14.80;59.60
11647;DHT22;5880;52.342;9.662;2023-03-23T02:18:57;14.90;59.80
11647;DHT22;5880;52.342;9.662;2023-03-23T02:22:10;14.90;60.30
11647;DHT22;5880;52.342;9.662;2023-03-23T02:33:58;14.90;60.40
11647;DHT22;5880;52.342;9.662;2023-03-23T02:36:37;14.90;60.00
11647;DHT22;5880;52.342;9.662;2023-03-23T02:39:21;14.90;60.00
11647;DHT22;5880;52.342;9.662;2023-03-23T02:41:56;14.90;60.40
11647;DHT22;5880;52.342;9.662;2023-03-23T02:44:28;14.90;60.10
11647;DHT22;5880;52.342;9.662;2023-03-23T02:46:57;14.90;59.90
11647;DHT22;5880;52.342;9.662;2023-03-23T02:49:28;14.90;59.90
11647;DHT22;5880;52.342;9.662;2023-03-23T02:51:58;14.90;60.20
11647;DHT22;5880;52.342;9.662;2023-03-23T02:54:28;14.90;60.10
11647;DHT22;5880;52.342;9.662;2023-03-23T02:56:56;14.90;60.00
11647;DHT22;5880;52.342;9.662;2023-03-23T02:59:23;14.90;60.00
11647;DHT22;5880;52.342;9.662;2023-03-23T03:01:58;14.90;60.10
11647;DHT22;5880;52.342;9.662;2023-03-23T03:04:30;15.00;60.40
11647;DHT22;5880;52.342;9.662;2023-03-23T03:07:53;15.00;60.50
11647;DHT22;5880;52.342;9.662;2023-03-23T03:10:31;15.00;61.70
11647;DHT22;5880;52.342;9.662;2023-03-23T03:13:27;15.00;60.60
11647;DHT22;5880;52.342;9.662;2023-03-23T03:16:33;15.00;60.50
11647;DHT22;5880;52.342;9.662;2023-03-23T03:19:11;15.00;60.90
11647;DHT22;5880;52.342;9.662;2023-03-23T03:21:45;15.00;60.80
11647;DHT22;5880;52.342;9.662;2023-03-23T03:24:15;14.90;60.30
11647;DHT22;5880;52.342;9.662;2023-03-23T03:26:47;14.90;60.40
11647;DHT22;5880;52.342;9.662;2023-03-23T03:29:18;14.90;60.50
11647;DHT22;5880;52.342;9.662;2023-03-23T03:31:50;14.90;60.70
11647;DHT22;5880;52.342;9.662;2023-03-23T03:34:21;14.90;60.70
11647;DHT22;5880;52.342;9.662;2023-03-23T03:36:49;14.90;60.80
11647;DHT22;5880;52.342;9.662;2023-03-23T03:39:18;14.90;60.70
11647;DHT22;5880;52.342;9.662;2023-03-23T03:41:46;14.80;60.70
11647;DHT22;5880;52.342;9.662;2023-03-23T03:44:12;14.90;60.90
11647;DHT22;5880;52.342;9.662;2023-03-23T03:46:37;14.80;60.60
11647;DHT22;5880;52.342;9.662;2023-03-23T03:49:06;14.90;61.50
11647;DHT22;5880;52.342;9.662;2023-03-23T03:51:34;14.90;60.90
11647;DHT22;5880;52.342;9.662;2023-03-23T03:54:01;14.90;60.60
11647;DHT22;5880;52.342;9.662;2023-03-23T03:56:26;14.90;60.70
11647;DHT22;5880;52.342;9.662;2023-03-23T03:58:53;14.90;60.60
11647;DHT22;5880;52.342;9.662;2023-03-23T04:01:21;14.90;60.60
11647;DHT22;5880;52.342;9.662;2023-03-23T04:03:48;14.90;60.60
11647;DHT22;5880;52.342;9.662;2023-03-23T04:06:16;14.90;60.40
11647;DHT22;5880;52.342;9.662;2023-03-23T04:08:42;14.90;60.30
11647;DHT22;5880;52.342;9.662;2023-03-23T04:11:10;14.90;60.40
11647;DHT22;5880;52.342;9.662;2023-03-23T04:13:39;14.90;60.40
11647;DHT22;5880;52.342;9.662;2023-03-23T04:16:05;14.90;60.40
11647;DHT22;5880;52.342;9.662;2023-03-23T04:18:32;14.90;60.40
11647;DHT22;5880;52.342;9.662;2023-03-23T04:21:00;14.90;60.30
11647;DHT22;5880;52.342;9.662;2023-03-23T04:23:28;14.90;60.40
11647;DHT22;5880;52.342;9.662;2023-03-23T04:25:56;14.90;60.40
11647;DHT22;5880;52.342;9.662;2023-03-23T04:28:24;14.90;60.30
11647;DHT22;5880;52.342;9.662;2023-03-23T04:30:51;14.90;60.40
11647;DHT22;5880;52.342;9.662;2023-03-23T04:33:25;14.90;60.40
11647;DHT22;5880;52.342;9.662;2023-03-23T04:35:52;14.90;60.60
11647;DHT22;5880;52.342;9.662;2023-03-23T04:38:23;14.90;60.40
11647;DHT22;5880;52.342;9.662;2023-03-23T04:40:51;14.90;60.40
11647;DHT22;5880;52.342;9.662;2023-03-23T04:43:23;14.90;60.30
11647;DHT22;5880;52.342;9.662;2023-03-23T04:45:56;14.90;60.40
11647;DHT22;5880;52.342;9.662;2023-03-23T04:48:28;14.90;60.40
11647;DHT22;5880;52.342;9.662;2023-03-23T04:51:00;14.90;60.30
11647;DHT22;5880;52.342;9.662;2023-03-23T04:53:28;14.90;60.00
11647;DHT22;5880;52.342;9.662;2023-03-23T04:55:54;14.90;60.00
11647;DHT22;5880;52.342;9.662;2023-03-23T04:58:20;14.90;60.80
11647;DHT22;5880;52.342;9.662;2023-03-23T05:00:46;14.90;60.10
11647;DHT22;5880;52.342;9.662;2023-03-23T05:03:18;14.90;60.10
11647;DHT22;5880;52.342;9.662;2023-03-23T05:05:46;14.90;60.20
11647;DHT22;5880;52.342;9.662;2023-03-23T05:08:20;14.80;60.00
11647;DHT22;5880;52.342;9.662;2023-03-23T05:10:57;14.80;60.00
11647;DHT22;5880;52.342;9.662;2023-03-23T05:13:24;14.80;60.50
11647;DHT22;5880;52.342;9.662;2023-03-23T05:15:50;14.80;60.00
11647;DHT22;5880;52.342;9.662;2023-03-23T05:18:16;14.80;60.00
11647;DHT22;5880;52.342;9.662;2023-03-23T05:20:42;14.80;60.00
11647;DHT22;5880;52.342;9.662;2023-03-23T05:23:09;14.80;60.00
11647;DHT22;5880;52.342;9.662;2023-03-23T05:25:36;14.80;60.10
11647;DHT22;5880;52.342;9.662;2023-03-23T05:28:06;14.80;60.10
11647;DHT22;5880;52.342;9.662;2023-03-23T05:30:34;14.80;60.00
11647;DHT22;5880;52.342;9.662;2023-03-23T05:33:00;14.80;60.00
11647;DHT22;5880;52.342;9.662;2023-03-23T05:35:26;14.80;60.10
11647;DHT22;5880;52.342;9.662;2023-03-23T05:37:52;14.80;60.10
11647;DHT22;5880;52.342;9.662;2023-03-23T05:40:22;14.80;60.30
11647;DHT22;5880;52.342;9.662;2023-03-23T05:42:51;14.80;60.30
11647;DHT22;5880;52.342;9.662;2023-03-23T05:45:18;14.80;60.30
11647;DHT22;5880;52.342;9.662;2023-03-23T05:47:44;14.80;60.30
11647;DHT22;5880;52.342;9.662;2023-03-23T05:50:11;14.80;60.40
11647;DHT22;5880;52.342;9.662;2023-03-23T05:52:38;14.80;60.30
11647;DHT22;5880;52.342;9.662;2023-03-23T05:55:05;14.80;60.40
11647;DHT22;5880;52.342;9.662;2023-03-23T05:57:33;14.80;60.40
11647;DHT22;5880;52.342;9.662;2023-03-23T05:59:59;14.80;60.30
11647;DHT22;5880;52.342;9.662;2023-03-23T06:02:25;14.80;60.40
11647;DHT22;5880;52.342;9.662;2023-03-23T06:04:54;14.80;60.40
11647;DHT22;5880;52.342;9.662;2023-03-23T06:07:23;14.80;60.40
11647;DHT22;5880;52.342;9.662;2023-03-23T06:09:51;14.80;60.40
11647;DHT22;5880;52.342;9.662;2023-03-23T06:12:17;14.90;60.50
11647;DHT22;5880;52.342;9.662;2023-03-23T06:14:47;14.90;60.50
11647;DHT22;5880;52.342;9.662;2023-03-23T06:17:15;14.90;60.60
11647;DHT22;5880;52.342;9.662;2023-03-23T06:19:42;14.90;60.70
11647;DHT22;5880;52.342;9.662;2023-03-23T06:22:10;14.90;60.60
11647;DHT22;5880;52.342;9.662;2023-03-23T06:24:36;14.90;60.60
11647;DHT22;5880;52.342;9.662;2023-03-23T06:27:02;14.90;60.50
11647;DHT22;5880;52.342;9.662;2023-03-23T06:29:28;15.00;60.50
11647;DHT22;5880;52.342;9.662;2023-03-23T06:31:59;15.00;60.50
11647;DHT22;5880;52.342;9.662;2023-03-23T06:34:27;15.00;60.60
11647;DHT22;5880;52.342;9.662;2023-03-23T06:36:53;15.00;60.40
11647;DHT22;5880;52.342;9.662;2023-03-23T06:39:19;15.00;60.40
11647;DHT22;5880;52.342;9.662;2023-03-23T06:41:45;15.00;60.50
11647;DHT22;5880;52.342;9.662;2023-03-23T06:44:10;15.30;60.80
11647;DHT22;5880;52.342;9.662;2023-03-23T06:46:39;15.00;60.60
11647;DHT22;5880;52.342;9.662;2023-03-23T06:49:06;15.00;60.70
11647;DHT22;5880;52.342;9.662;2023-03-23T06:51:32;15.10;60.80
11647;DHT22;5880;52.342;9.662;2023-03-23T06:53:58;15.10;60.70
11647;DHT22;5880;52.342;9.662;2023-03-23T06:56:27;15.10;60.70
11647;DHT22;5880;52.342;9.662;2023-03-23T06:58:53;15.20;60.70
11647;DHT22;5880;52.342;9.662;2023-03-23T07:01:19;15.20;60.60
11647;DHT22;5880;52.342;9.662;2023-03-23T07:03:45;15.20;60.50
11647;DHT22;5880;52.342;9.662;2023-03-23T07:06:11;15.20;60.40
11647;DHT22;5880;52.342;9.662;2023-03-23T07:08:37;15.20;60.40
11647;DHT22;5880;52.342;9.662;2023-03-23T07:11:03;15.20;60.40
11647;DHT22;5880;52.342;9.662;2023-03-23T07:13:29;15.20;60.30
11647;DHT22;5880;52.342;9.662;2023-03-23T07:15:55;15.20;60.30
11647;DHT22;5880;52.342;9.662;2023-03-23T07:18:22;15.20;60.40
11647;DHT22;5880;52.342;9.662;2023-03-23T07:20:51;15.20;60.50
11647;DHT22;5880;52.342;9.662;2023-03-23T07:23:18;15.20;61.20
11647;DHT22;5880;52.342;9.662;2023-03-23T07:25:44;15.30;60.70
11647;DHT22;5880;52.342;9.662;2023-03-23T07:28:11;15.30;60.70
11647;DHT22;5880;52.342;9.662;2023-03-23T07:30:38;15.30;60.80
11647;DHT22;5880;52.342;9.662;2023-03-23T07:33:05;15.60;60.90
11647;DHT22;5880;52.342;9.662;2023-03-23T07:35:32;15.50;60.90
11647;DHT22;5880;52.342;9.662;2023-03-23T07:37:58;15.50;60.90
11647;DHT22;5880;52.342;9.662;2023-03-23T07:40:25;15.50;60.80
11647;DHT22;5880;52.342;9.662;2023-03-23T07:42:53;15.60;60.80
11647;DHT22;5880;52.342;9.662;2023-03-23T07:45:20;15.70;60.80
11647;DHT22;5880;52.342;9.662;2023-03-23T07:47:46;15.70;60.60
11647;DHT22;5880;52.342;9.662;2023-03-23T07:50:12;15.80;60.40
11647;DHT22;5880;52.342;9.662;2023-03-23T07:52:39;15.80;60.40
11647;DHT22;5880;52.342;9.662;2023-03-23T07:55:08;15.90;60.30
11647;DHT22;5880;52.342;9.662;2023-03-23T07:57:44;16.00;60.20
11647;DHT22;5880;52.342;9.662;2023-03-23T08:00:11;16.00;60.30
11647;DHT22;5880;52.342;9.662;2023-03-23T08:02:39;16.10;60.40
11647;DHT22;5880;52.342;9.662;2023-03-23T08:05:05;16.10;60.20
11647;DHT22;5880;52.342;9.662;2023-03-23T08:07:30;16.20;59.90
11647;DHT22;5880;52.342;9.662;2023-03-23T08:09:56;16.30;59.80
11647;DHT22;5880;52.342;9.662;2023-03-23T08:12:22;16.30;59.50
11647;DHT22;5880;52.342;9.662;2023-03-23T08:14:47;16.40;59.20
11647;DHT22;5880;52.342;9.662;2023-03-23T08:17:13;16.40;59.00
11647;DHT22;5880;52.342;9.662;2023-03-23T08:19:39;16.40;58.90
11647;DHT22;5880;52.342;9.662;2023-03-23T08:22:05;16.50;59.00
11647;DHT22;5880;52.342;9.662;2023-03-23T08:24:32;16.50;59.20
11647;DHT22;5880;52.342;9.662;2023-03-23T08:26:59;16.60;59.00
11647;DHT22;5880;52.342;9.662;2023-03-23T08:29:25;16.60;58.80
11647;DHT22;5880;52.342;9.662;2023-03-23T08:31:51;16.70;58.80
11647;DHT22;5880;52.342;9.662;2023-03-23T08:34:17;16.70;58.60
11647;DHT22;5880;52.342;9.662;2023-03-23T08:36:43;16.70;58.50
11647;DHT22;5880;52.342;9.662;2023-03-23T08:39:11;16.70;58.10
11647;DHT22;5880;52.342;9.662;2023-03-23T08:41:37;16.80;58.10
11647;DHT22;5880;52.342;9.662;2023-03-23T08:44:03;16.80;58.00
11647;DHT22;5880;52.342;9.662;2023-03-23T08:46:29;16.80;58.00
11647;DHT22;5880;52.342;9.662;2023-03-23T08:48:55;16.80;58.00
11647;DHT22;5880;52.342;9.662;2023-03-23T08:51:21;16.80;58.00
11647;DHT22;5880;52.342;9.662;2023-03-23T08:53:47;16.80;57.90
11647;DHT22;5880;52.342;9.662;2023-03-23T08:56:12;16.80;57.60
11647;DHT22;5880;52.342;9.662;2023-03-23T08:58:39;16.80;57.70
11647;DHT22;5880;52.342;9.662;2023-03-23T09:01:06;16.80;57.90
11647;DHT22;5880;52.342;9.662;2023-03-23T09:03:33;16.80;57.80
11647;DHT22;5880;52.342;9.662;2023-03-23T09:06:06;16.90;57.80
11647;DHT22;5880;52.342;9.662;2023-03-23T09:08:33;16.90;57.50
11647;DHT22;5880;52.342;9.662;2023-03-23T09:11:05;16.90;57.70
11647;DHT22;5880;52.342;9.662;2023-03-23T09:13:34;16.90;57.60
11647;DHT22;5880;52.342;9.662;2023-03-23T09:16:01;16.90;57.70
11647;DHT22;5880;52.342;9.662;2023-03-23T09:18:29;16.90;57.60
11647;DHT22;5880;52.342;9.662;2023-03-23T09:20:57;16.90;57.70
11647;DHT22;5880;52.342;9.662;2023-03-23T09:23:25;16.90;57.30
11647;DHT22;5880;52.342;9.662;2023-03-23T09:25:51;17.00;57.50
11647;DHT22;5880;52.342;9.662;2023-03-23T09:28:17;16.90;57.50
11647;DHT22;5880;52.342;9.662;2023-03-23T09:30:44;17.00;57.60
11647;DHT22;5880;52.342;9.662;2023-03-23T09:33:11;17.00;57.80
11647;DHT22;5880;52.342;9.662;2023-03-23T09:35:37;17.00;57.70
11647;DHT22;5880;52.342;9.662;2023-03-23T09:38:04;17.00;57.70
11647;DHT22;5880;52.342;9.662;2023-03-23T09:40:38;17.00;57.60
11647;DHT22;5880;52.342;9.662;2023-03-23T09:43:44;17.10;57.50
11647;DHT22;5880;52.342;9.662;2023-03-23T09:46:45;17.00;57.10
11647;DHT22;5880;52.342;9.662;2023-03-23T09:49:23;17.10;57.40
11647;DHT22;5880;52.342;9.662;2023-03-23T09:51:56;17.00;57.00
11647;DHT22;5880;52.342;9.662;2023-03-23T09:54:49;17.00;57.00
11647;DHT22;5880;52.342;9.662;2023-03-23T09:57:34;17.00;57.40
11647;DHT22;5880;52.342;9.662;2023-03-23T10:00:22;17.00;56.60
11647;DHT22;5880;52.342;9.662;2023-03-23T10:03:14;17.00;56.60
11647;DHT22;5880;52.342;9.662;2023-03-23T10:05:54;16.90;56.30
11647;DHT22;5880;52.342;9.662;2023-03-23T10:08:22;16.90;56.40
11647;DHT22;5880;52.342;9.662;2023-03-23T10:11:02;16.90;56.70
11647;DHT22;5880;52.342;9.662;2023-03-23T10:13:53;16.90;56.90
11647;DHT22;5880;52.342;9.662;2023-03-23T10:16:29;16.90;56.70
11647;DHT22;5880;52.342;9.662;2023-03-23T10:19:09;16.80;56.70
11647;DHT22;5880;52.342;9.662;2023-03-23T10:22:08;16.90;56.60
11647;DHT22;5880;52.342;9.662;2023-03-23T10:24:44;16.90;57.00
11647;DHT22;5880;52.342;9.662;2023-03-23T10:27:27;16.90;57.00
11647;DHT22;5880;52.342;9.662;2023-03-23T10:30:16;17.00;57.00
11647;DHT22;5880;52.342;9.662;2023-03-23T10:32:57;17.00;56.70
11647;DHT22;5880;52.342;9.662;2023-03-23T10:35:54;17.10;56.50
11647;DHT22;5880;52.342;9.662;2023-03-23T10:38:31;17.10;56.30
11647;DHT22;5880;52.342;9.662;2023-03-23T10:41:05;17.10;56.60
11647;DHT22;5880;52.342;9.662;2023-03-23T10:43:37;17.10;56.90
11647;DHT22;5880;52.342;9.662;2023-03-23T10:46:43;17.20;57.40
11647;DHT22;5880;52.342;9.662;2023-03-23T10:49:18;17.30;56.70
11647;DHT22;5880;52.342;9.662;2023-03-23T10:51:56;17.40;57.90
11647;DHT22;5880;52.342;9.662;2023-03-23T10:54:39;17.60;57.50
11647;DHT22;5880;52.342;9.662;2023-03-23T10:57:23;17.80;57.30
11647;DHT22;5880;52.342;9.662;2023-03-23T11:00:20;18.00;56.90
11647;DHT22;5880;52.342;9.662;2023-03-23T11:02:59;18.10;57.40
11647;DHT22;5880;52.342;9.662;2023-03-23T11:05:44;18.30;56.40
11647;DHT22;5880;52.342;9.662;2023-03-23T11:08:20;18.40;56.40
11647;DHT22;5880;52.342;9.662;2023-03-23T11:10:53;18.60;56.40
11647;DHT22;5880;52.342;9.662;2023-03-23T11:13:27;18.70;56.20
11647;DHT22;5880;52.342;9.662;2023-03-23T11:15:56;18.80;55.20
11647;DHT22;5880;52.342;9.662;2023-03-23T11:18:22;18.90;55.10
11647;DHT22;5880;52.342;9.662;2023-03-23T11:20:56;19.00;54.80
11647;DHT22;5880;52.342;9.662;2023-03-23T11:23:31;19.00;53.40
11647;DHT22;5880;52.342;9.662;2023-03-23T11:26:17;19.10;52.90
11647;DHT22;5880;52.342;9.662;2023-03-23T11:31:47;19.10;52.10
11647;DHT22;5880;52.342;9.662;2023-03-23T11:34:25;19.10;51.80
11647;DHT22;5880;52.342;9.662;2023-03-23T11:39:47;19.00;51.50
11647;DHT22;5880;52.342;9.662;2023-03-23T11:42:22;19.00;51.10
11647;DHT22;5880;52.342;9.662;2023-03-23T11:45:17;18.90;51.20
11647;DHT22;5880;52.342;9.662;2023-03-23T11:51:00;18.80;50.20
11647;DHT22;5880;52.342;9.662;2023-03-23T11:56:32;18.60;50.30
11647;DHT22;5880;52.342;9.662;2023-03-23T11:59:00;18.60;50.70
11647;DHT22;5880;52.342;9.662;2023-03-23T12:01:51;18.50;50.90
11647;DHT22;5880;52.342;9.662;2023-03-23T12:10:41;18.30;52.60
11647;DHT22;5880;52.342;9.662;2023-03-23T12:24:46;16.80;55.40
11647;DHT22;5880;52.342;9.662;2023-03-23T12:34:07;16.20;58.50
11647;DHT22;5880;52.342;9.662;2023-03-23T12:42:38;16.10;59.50
11647;DHT22;5880;52.342;9.662;2023-03-23T12:48:01;16.00;59.00
11647;DHT22;5880;52.342;9.662;2023-03-23T12:50:44;15.90;59.10
11647;DHT22;5880;52.342;9.662;2023-03-23T12:53:33;15.80;58.50
11647;DHT22;5880;52.342;9.662;2023-03-23T12:56:12;15.80;59.40
11647;DHT22;5880;52.342;9.662;2023-03-23T12:58:45;15.70;58.90
11647;DHT22;5880;52.342;9.662;2023-03-23T13:01:20;15.70;59.50
11647;DHT22;5880;52.342;9.662;2023-03-23T13:04:25;15.80;60.00
11647;DHT22;5880;52.342;9.662;2023-03-23T13:07:01;15.80;60.30
11647;DHT22;5880;52.342;9.662;2023-03-23T13:12:15;15.70;60.80
11647;DHT22;5880;52.342;9.662;2023-03-23T13:17:37;15.70;59.40
11647;DHT22;5880;52.342;9.662;2023-03-23T13:20:20;15.80;59.80
11647;DHT22;5880;52.342;9.662;2023-03-23T13:23:12;15.70;59.50
11647;DHT22;5880;52.342;9.662;2023-03-23T13:26:06;15.70;59.60
11647;DHT22;5880;52.342;9.662;2023-03-23T13:31:38;15.70;59.60
11647;DHT22;5880;52.342;9.662;2023-03-23T13:34:12;15.70;59.50
11647;DHT22;5880;52.342;9.662;2023-03-23T13:36:52;15.60;58.90
11647;DHT22;5880;52.342;9.662;2023-03-23T13:39:51;15.60;58.60
11647;DHT22;5880;52.342;9.662;2023-03-23T13:42:23;15.60;58.90
11647;DHT22;5880;52.342;9.662;2023-03-23T13:45:22;15.60;58.50
11647;DHT22;5880;52.342;9.662;2023-03-23T13:50:55;15.50;59.20
11647;DHT22;5880;52.342;9.662;2023-03-23T13:53:31;15.50;59.50
11647;DHT22;5880;52.342;9.662;2023-03-23T13:59:12;15.40;60.30
11647;DHT22;5880;52.342;9.662;2023-03-23T14:01:40;15.40;59.70
11647;DHT22;5880;52.342;9.662;2023-03-23T14:04:14;15.40;59.40
11647;DHT22;5880;52.342;9.662;2023-03-23T14:06:42;15.40;59.50
11647;DHT22;5880;52.342;9.662;2023-03-23T14:09:26;15.40;59.20
11647;DHT22;5880;52.342;9.662;2023-03-23T14:12:03;15.50;59.50
11647;DHT22;5880;52.342;9.662;2023-03-23T14:14:45;15.50;59.40
11647;DHT22;5880;52.342;9.662;2023-03-23T14:17:24;15.50;59.40
11647;DHT22;5880;52.342;9.662;2023-03-23T14:19:54;15.50;59.20
11647;DHT22;5880;52.342;9.662;2023-03-23T14:22:27;15.50;59.20
11647;DHT22;5880;52.342;9.662;2023-03-23T14:25:12;15.50;59.40
11647;DHT22;5880;52.342;9.662;2023-03-23T14:27:39;15.50;59.50
11647;DHT22;5880;52.342;9.662;2023-03-23T14:30:12;15.60;59.40
11647;DHT22;5880;52.342;9.662;2023-03-23T14:32:40;15.60;59.50
11647;DHT22;5880;52.342;9.662;2023-03-23T14:35:23;15.60;59.90
11647;DHT22;5880;52.342;9.662;2023-03-23T14:37:54;15.60;60.30
11647;DHT22;5880;52.342;9.662;2023-03-23T14:40:21;15.70;60.00
11647;DHT22;5880;52.342;9.662;2023-03-23T14:42:49;15.70;60.10
11647;DHT22;5880;52.342;9.662;2023-03-23T14:45:18;15.80;60.30
11647;DHT22;5880;52.342;9.662;2023-03-23T14:47:51;15.80;60.20
11647;DHT22;5880;52.342;9.662;2023-03-23T14:50:30;15.80;60.30
11647;DHT22;5880;52.342;9.662;2023-03-23T14:53:17;15.90;60.30
11647;DHT22;5880;52.342;9.662;2023-03-23T14:55:47;15.90;60.30
11647;DHT22;5880;52.342;9.662;2023-03-23T14:58:17;15.90;59.80
11647;DHT22;5880;52.342;9.662;2023-03-23T15:00:54;16.00;59.70
11647;DHT22;5880;52.342;9.662;2023-03-23T15:03:25;16.00;60.10
11647;DHT22;5880;52.342;9.662;2023-03-23T15:05:58;16.00;59.80
11647;DHT22;5880;52.342;9.662;2023-03-23T15:08:30;16.10;60.50
11647;DHT22;5880;52.342;9.662;2023-03-23T15:11:12;16.10;60.30
11647;DHT22;5880;52.342;9.662;2023-03-23T15:13:50;16.20;60.40
11647;DHT22;5880;52.342;9.662;2023-03-23T15:18:54;16.30;59.90
11647;DHT22;5880;52.342;9.662;2023-03-23T15:21:34;16.30;60.00
11647;DHT22;5880;52.342;9.662;2023-03-23T15:30:32;16.20;59.30
11647;DHT22;5880;52.342;9.662;2023-03-23T15:33:11;16.20;59.40
11647;DHT22;5880;52.342;9.662;2023-03-23T15:35:45;16.20;59.20
11647;DHT22;5880;52.342;9.662;2023-03-23T15:38:28;16.20;59.30
11647;DHT22;5880;52.342;9.662;2023-03-23T15:40:58;16.20;59.20
11647;DHT22;5880;52.342;9.662;2023-03-23T15:43:35;16.20;58.80
11647;DHT22;5880;52.342;9.662;2023-03-23T15:48:50;16.10;59.00
11647;DHT22;5880;52.342;9.662;2023-03-23T15:51:33;16.10;59.60
11647;DHT22;5880;52.342;9.662;2023-03-23T15:53:59;16.10;59.50
11647;DHT22;5880;52.342;9.662;2023-03-23T15:56:25;16.10;59.60
11647;DHT22;5880;52.342;9.662;2023-03-23T15:58:52;16.10;59.70
11647;DHT22;5880;52.342;9.662;2023-03-23T16:01:22;16.10;59.70
11647;DHT22;5880;52.342;9.662;2023-03-23T16:04:03;16.10;59.60
11647;DHT22;5880;52.342;9.662;2023-03-23T16:06:33;16.10;60.40
11647;DHT22;5880;52.342;9.662;2023-03-23T16:09:01;16.20;59.40
11647;DHT22;5880;52.342;9.662;2023-03-23T16:11:29;16.10;59.20
11647;DHT22;5880;52.342;9.662;2023-03-23T16:13:57;16.10;59.20
11647;DHT22;5880;52.342;9.662;2023-03-23T16:16:24;16.10;59.10
11647;DHT22;5880;52.342;9.662;2023-03-23T16:18:53;16.10;59.10
11647;DHT22;5880;52.342;9.662;2023-03-23T16:21:19;16.10;59.20
11647;DHT22;5880;52.342;9.662;2023-03-23T16:23:45;16.10;59.20
11647;DHT22;5880;52.342;9.662;2023-03-23T16:26:12;16.10;59.30
11647;DHT22;5880;52.342;9.662;2023-03-23T16:28:39;16.10;59.30
11647;DHT22;5880;52.342;9.662;2023-03-23T16:31:05;16.00;59.20
11647;DHT22;5880;52.342;9.662;2023-03-23T16:33:31;16.00;59.20
11647;DHT22;5880;52.342;9.662;2023-03-23T16:35:57;16.00;59.30
11647;DHT22;5880;52.342;9.662;2023-03-23T16:38:23;16.00;59.30
11647;DHT22;5880;52.342;9.662;2023-03-23T16:40:50;16.00;59.30
11647;DHT22;5880;52.342;9.662;2023-03-23T16:43:16;15.90;59.60
11647;DHT22;5880;52.342;9.662;2023-03-23T16:45:44;15.90;59.60
11647;DHT22;5880;52.342;9.662;2023-03-23T16:48:12;15.90;59.70
11647;DHT22;5880;52.342;9.662;2023-03-23T16:50:40;15.90;59.70
11647;DHT22;5880;52.342;9.662;2023-03-23T16:53:07;15.90;59.60
11647;DHT22;5880;52.342;9.662;2023-03-23T16:55:35;15.90;59.60
11647;DHT22;5880;52.342;9.662;2023-03-23T16:58:01;15.90;59.50
11647;DHT22;5880;52.342;9.662;2023-03-23T17:00:28;15.90;60.40
11647;DHT22;5880;52.342;9.662;2023-03-23T17:02:54;15.90;59.60
11647;DHT22;5880;52.342;9.662;2023-03-23T17:05:26;15.90;59.50
11647;DHT22;5880;52.342;9.662;2023-03-23T17:07:53;15.80;59.50
11647;DHT22;5880;52.342;9.662;2023-03-23T17:10:20;15.80;59.20
11647;DHT22;5880;52.342;9.662;2023-03-23T17:12:47;15.80;59.20
11647;DHT22;5880;52.342;9.662;2023-03-23T17:15:13;15.70;59.20
11647;DHT22;5880;52.342;9.662;2023-03-23T17:17:40;15.70;59.40
11647;DHT22;5880;52.342;9.662;2023-03-23T17:20:06;15.60;59.30
11647;DHT22;5880;52.342;9.662;2023-03-23T17:22:34;15.60;59.50
11647;DHT22;5880;52.342;9.662;2023-03-23T17:25:01;15.60;59.40
11647;DHT22;5880;52.342;9.662;2023-03-23T17:27:27;15.50;59.50
11647;DHT22;5880;52.342;9.662;2023-03-23T17:29:54;15.50;59.50
11647;DHT22;5880;52.342;9.662;2023-03-23T17:32:20;15.40;59.40
11647;DHT22;5880;52.342;9.662;2023-03-23T17:34:48;15.40;59.60
11647;DHT22;5880;52.342;9.662;2023-03-23T17:37:15;15.40;59.70
11647;DHT22;5880;52.342;9.662;2023-03-23T17:39:41;15.30;59.70